createdAt,value
2019-05-03T00:02:29.010Z,95259.98
2019-05-03T00:05:32.552Z,95258.87
2019-05-03T00:08:21.759Z,95255.03
2019-05-03T00:11:09.910Z,95256.05
2019-05-03T00:13:57.035Z,95254.23
2019-05-03T00:16:46.404Z,95248.14
2019-05-03T00:19:34.177Z,95255.48
2019-05-03T00:22:21.864Z,95254.57
2019-05-03T00:25:08.977Z,95246.67
2019-05-03T00:27:56.345Z,95246.45
2019-05-03T00:30:44.142Z,95251.64
2019-05-03T00:33:32.405Z,95254.33
2019-05-03T00:36:32.847Z,95262.23
2019-05-03T00:39:41.846Z,95259.64
2019-05-03T00:42:29.408Z,95255.13
2019-05-03T00:45:17.420Z,95256.50
2019-05-03T00:48:05.401Z,95256.38
2019-05-03T00:50:52.885Z,95255.48
2019-05-03T00:53:42.269Z,95253.20
2019-05-03T00:56:29.443Z,95245.99
2019-05-03T00:59:17.427Z,95251.18
2019-05-03T01:02:05.250Z,95250.74
2019-05-03T01:04:53.081Z,95246.09
2019-05-03T01:07:42.248Z,95248.14
2019-05-03T01:10:29.663Z,95245.77
2019-05-03T01:13:17.009Z,95244.30
2019-05-03T01:16:09.088Z,95237.30
2019-05-03T01:18:56.587Z,95241.02
2019-05-03T01:21:43.728Z,95243.28
2019-05-03T01:24:32.283Z,95244.20
2019-05-03T01:27:21.818Z,95236.76
2019-05-03T01:30:09.209Z,95245.53
2019-05-03T01:32:57.253Z,95232.69
2019-05-03T01:35:44.689Z,95239.91
2019-05-03T01:38:32.136Z,95234.70
2019-05-03T01:41:21.597Z,95240.36
2019-05-03T01:44:08.912Z,95239.69
2019-05-03T01:46:58.342Z,95237.53
2019-05-03T01:49:55.429Z,95249.37
2019-05-03T01:52:43.206Z,95243.72
2019-05-03T01:55:48.191Z,95242.39
2019-05-03T01:58:35.283Z,95249.15
2019-05-03T02:01:42.251Z,95254.22
2019-05-03T02:04:41.652Z,95254.11
2019-05-03T02:07:29.085Z,95251.94
2019-05-03T02:10:16.271Z,95244.71
2019-05-03T02:13:05.073Z,95258.09
2019-05-03T02:15:53.019Z,95248.42
2019-05-03T02:18:42.384Z,95252.72
2019-05-03T02:21:29.654Z,95252.60
2019-05-03T02:24:16.897Z,95256.55
2019-05-03T02:27:04.262Z,95256.77
2019-05-03T02:29:52.441Z,95259.94
2019-05-03T02:32:43.631Z,95265.33
2019-05-03T02:35:29.918Z,95252.74
2019-05-03T02:38:17.662Z,95259.63
2019-05-03T02:41:05.417Z,95255.56
2019-05-03T02:43:56.071Z,95251.82
2019-05-03T02:47:08.058Z,95251.02
2019-05-03T02:50:02.631Z,95255.30
2019-05-03T02:52:50.266Z,95256.74
2019-05-03T02:55:38.114Z,95255.73
2019-05-03T02:58:25.555Z,95257.63
2019-05-03T03:01:16.251Z,95254.73
2019-05-03T03:04:05.241Z,95256.70
2019-05-03T03:06:55.463Z,95253.18
2019-05-03T03:09:41.733Z,95255.77
2019-05-03T03:12:30.891Z,95260.53
2019-05-03T03:15:18.857Z,95260.99
2019-05-03T03:18:08.095Z,95258.75
2019-05-03T03:20:56.981Z,95259.75
2019-05-03T03:23:55.928Z,95257.58
2019-05-03T03:26:44.463Z,95255.73
2019-05-03T03:29:32.197Z,95261.83
2019-05-03T03:32:39.198Z,95258.41
2019-05-03T03:35:29.619Z,95252.26
2019-05-03T03:38:17.574Z,95255.66
2019-05-03T03:41:06.041Z,95250.02
2019-05-03T03:43:55.789Z,95255.48
2019-05-03T03:46:45.467Z,95259.25
2019-05-03T03:49:35.606Z,95258.13
2019-05-03T03:52:25.482Z,95262.76
2019-05-03T03:55:15.635Z,95264.12
2019-05-03T03:58:01.935Z,95260.18
2019-05-03T04:00:49.142Z,95272.11
2019-05-03T04:03:36.935Z,95271.12
2019-05-03T04:06:40.880Z,95274.56
2019-05-03T04:09:29.003Z,95278.16
2019-05-03T04:12:16.802Z,95287.02
2019-05-03T04:15:18.360Z,95283.20
2019-05-03T04:18:16.841Z,95289.74
2019-05-03T04:21:05.572Z,95289.59
2019-05-03T04:23:55.676Z,95292.13
2019-05-03T04:26:45.244Z,95294.32
2019-05-03T04:29:31.783Z,95297.72
2019-05-03T04:32:19.088Z,95303.36
2019-05-03T04:35:06.896Z,95309.70
2019-05-03T04:37:55.848Z,95309.00
2019-05-03T04:40:45.364Z,95315.63
2019-05-03T04:43:35.389Z,95319.00
2019-05-03T04:46:25.826Z,95320.80
2019-05-03T04:49:15.167Z,95325.84
2019-05-03T04:52:05.817Z,95319.98
2019-05-03T04:54:56.236Z,95319.75
2019-05-03T04:57:46.792Z,95327.66
2019-05-03T05:00:35.869Z,95323.25
2019-05-03T05:03:23.079Z,95327.66
2019-05-03T05:06:10.750Z,95329.92
2019-05-03T05:08:57.784Z,95328.92
2019-05-03T05:11:46.048Z,95328.43
2019-05-03T05:14:35.252Z,95330.13
2019-05-03T05:17:48.000Z,95336.03
2019-05-03T05:20:58.794Z,95336.00
2019-05-03T05:24:05.299Z,95333.19
2019-05-03T05:26:58.500Z,95341.98
2019-05-03T05:29:46.368Z,95337.53
2019-05-03T05:32:35.061Z,95343.34
2019-05-03T05:35:24.720Z,95346.48
2019-05-03T05:38:12.284Z,95339.80
2019-05-03T05:41:00.007Z,95353.55
2019-05-03T05:43:47.311Z,95356.64
2019-05-03T05:46:42.061Z,95351.67
2019-05-03T05:49:57.822Z,95356.09
2019-05-03T05:52:45.461Z,95353.86
2019-05-03T05:55:50.974Z,95353.78
2019-05-03T05:58:47.069Z,95357.73
2019-05-03T06:01:38.243Z,95364.80
2019-05-03T06:04:26.006Z,95369.91
2019-05-03T06:07:30.523Z,95360.26
2019-05-03T06:10:26.586Z,95361.17
2019-05-03T06:13:17.977Z,95365.05
2019-05-03T06:16:20.524Z,95359.63
2019-05-03T06:19:29.664Z,95363.58
2019-05-03T06:22:34.587Z,95366.48
2019-05-03T06:25:27.623Z,95368.20
2019-05-03T06:28:25.262Z,95363.50
2019-05-03T06:31:24.834Z,95364.19
2019-05-03T06:34:11.710Z,95359.06
2019-05-03T06:37:04.361Z,95361.59
2019-05-03T06:39:51.118Z,95369.19
2019-05-03T06:42:51.253Z,95367.79
2019-05-03T06:45:28.119Z,95368.97
2019-05-03T06:48:17.776Z,95378.36
2019-05-03T06:51:09.278Z,95381.66
2019-05-03T06:53:54.743Z,95378.44
2019-05-03T06:56:42.447Z,95370.68
2019-05-03T06:59:35.889Z,95380.38
2019-05-03T07:02:39.697Z,95369.38
2019-05-03T07:05:48.823Z,95371.09
2019-05-03T07:08:54.978Z,95369.36
2019-05-03T07:11:42.375Z,95371.84
2019-05-03T07:14:30.048Z,95374.08
2019-05-03T07:17:17.458Z,95371.18
2019-05-03T07:20:05.488Z,95376.33
2019-05-03T07:22:55.545Z,95374.31
2019-05-03T07:25:44.800Z,95377.25
2019-05-03T07:28:44.435Z,95378.06
2019-05-03T07:31:21.345Z,95378.88
2019-05-03T07:34:09.813Z,95383.41
2019-05-03T07:36:57.169Z,95381.55
2019-05-03T07:39:45.294Z,95383.83
2019-05-03T07:42:34.727Z,95385.92
2019-05-03T07:45:22.670Z,95385.49
2019-05-03T07:48:10.636Z,95388.86
2019-05-03T07:50:58.116Z,95391.66
2019-05-03T07:53:45.499Z,95386.38
2019-05-03T07:56:40.810Z,95386.58
2019-05-03T07:59:28.784Z,95387.42
2019-05-03T08:02:17.147Z,95390.91
2019-05-03T08:05:05.271Z,95385.26
2019-05-03T08:07:52.785Z,95386.84
2019-05-03T08:10:40.444Z,95382.02
2019-05-03T08:13:28.004Z,95388.06
2019-05-03T08:16:16.039Z,95383.98
2019-05-03T08:19:05.024Z,95387.61
2019-05-03T08:21:52.934Z,95386.23
2019-05-03T08:24:40.604Z,95393.35
2019-05-03T08:27:28.071Z,95398.77
2019-05-03T08:30:20.210Z,95397.07
2019-05-03T08:33:14.916Z,95404.21
2019-05-03T08:36:02.353Z,95404.30
2019-05-03T08:38:49.831Z,95398.64
2019-05-03T08:41:39.083Z,95402.93
2019-05-03T08:44:26.716Z,95405.98
2019-05-03T08:47:15.519Z,95408.55
2019-05-03T08:50:05.483Z,95410.36
2019-05-03T08:52:52.283Z,95415.11
2019-05-03T08:55:40.244Z,95411.14
2019-05-03T08:58:27.668Z,95411.91
2019-05-03T09:01:15.651Z,95413.53
2019-05-03T09:04:04.985Z,95411.22
2019-05-03T09:06:52.543Z,95407.85
2019-05-03T09:09:55.146Z,95409.32
2019-05-03T09:13:03.420Z,95412.11
2019-05-03T09:15:50.804Z,95403.13
2019-05-03T09:18:38.215Z,95408.56
2019-05-03T09:21:25.678Z,95402.59
2019-05-03T09:24:15.198Z,95408.17
2019-05-03T09:27:04.964Z,95403.41
2019-05-03T09:29:51.750Z,95401.36
2019-05-03T09:32:39.734Z,95401.84
2019-05-03T09:35:32.879Z,95405.87
2019-05-03T09:38:16.725Z,95401.55
2019-05-03T09:41:05.233Z,95399.59
2019-05-03T09:43:55.255Z,95403.76
2019-05-03T09:46:44.525Z,95404.86
2019-05-03T09:49:31.567Z,95400.25
2019-05-03T09:52:19.140Z,95396.53
2019-05-03T09:55:09.501Z,95404.13
2019-05-03T09:57:56.920Z,95400.84
2019-05-03T10:00:44.993Z,95399.97
2019-05-03T10:03:32.643Z,95398.86
2019-05-03T10:06:20.042Z,95398.64
2019-05-03T10:09:07.611Z,95399.44
2019-05-03T10:11:55.321Z,95400.67
2019-05-03T10:14:45.101Z,95402.25
2019-05-03T10:17:51.312Z,95403.50
2019-05-03T10:20:38.731Z,95400.13
2019-05-03T10:23:55.044Z,95391.36
2019-05-03T10:26:42.473Z,95387.36
2019-05-03T10:29:29.972Z,95387.30
2019-05-03T10:32:25.390Z,95384.77
2019-05-03T10:35:15.126Z,95388.48
2019-05-03T10:38:02.663Z,95378.41
2019-05-03T10:40:50.278Z,95374.20
2019-05-03T10:43:37.799Z,95379.82
2019-05-03T10:46:25.195Z,95380.66
2019-05-03T10:49:15.161Z,95377.58
2019-05-03T10:52:05.680Z,95383.03
2019-05-03T10:54:55.732Z,95380.98
2019-05-03T10:57:46.256Z,95373.98
2019-05-03T11:00:46.169Z,95378.29
2019-05-03T11:03:23.313Z,95376.08
2019-05-03T11:06:10.632Z,95372.38
2019-05-03T11:08:59.845Z,95378.81
2019-05-03T11:11:47.522Z,95376.84
2019-05-03T11:14:35.170Z,95369.25
2019-05-03T11:17:22.496Z,95375.06
2019-05-03T11:20:11.091Z,95368.09
2019-05-03T11:22:58.539Z,95373.97
2019-05-03T11:25:46.367Z,95370.98
2019-05-03T11:28:35.391Z,95368.22
2019-05-03T11:31:40.876Z,95359.27
2019-05-03T11:34:35.493Z,95353.52
2019-05-03T11:37:39.525Z,95361.02
2019-05-03T11:40:26.909Z,95356.55
2019-05-03T11:43:15.262Z,95356.52
2019-05-03T11:46:02.468Z,95352.59
2019-05-03T11:48:50.159Z,95349.56
2019-05-03T11:51:37.789Z,95352.66
2019-05-03T11:54:25.205Z,95353.48
2019-05-03T11:57:19.868Z,95357.06
2019-05-03T12:00:11.330Z,95352.39
2019-05-03T12:03:05.327Z,95348.35
2019-05-03T12:05:55.301Z,95351.28
2019-05-03T12:08:44.761Z,95342.84
2019-05-03T12:11:33.741Z,95342.41
2019-05-03T12:14:21.625Z,95340.56
2019-05-03T12:17:18.816Z,95332.23
2019-05-03T12:20:02.292Z,95337.22
2019-05-03T12:22:51.062Z,95334.31
2019-05-03T12:25:39.219Z,95326.02
2019-05-03T12:28:27.600Z,95324.67
2019-05-03T12:31:29.540Z,95327.28
2019-05-03T12:34:06.010Z,95326.88
2019-05-03T12:36:53.443Z,95322.69
2019-05-03T12:39:40.581Z,95312.98
2019-05-03T12:42:27.938Z,95310.77
2019-05-03T12:45:15.649Z,95304.31
2019-05-03T12:48:04.983Z,95305.24
2019-05-03T12:50:52.928Z,95305.78
2019-05-03T12:53:41.199Z,95297.23
2019-05-03T12:56:32.784Z,95300.17
2019-05-03T12:59:41.614Z,95294.64
2019-05-03T13:02:45.440Z,95292.19
2019-05-03T13:05:33.296Z,95294.75
2019-05-03T13:08:42.333Z,95285.78
2019-05-03T13:11:34.682Z,95283.64
2019-05-03T13:14:21.051Z,95287.02
2019-05-03T13:17:11.216Z,95289.63
2019-05-03T13:19:57.883Z,95279.56
2019-05-03T13:22:46.184Z,95289.24
2019-05-03T13:25:35.542Z,95283.56
2019-05-03T13:28:22.848Z,95281.64
2019-05-03T13:31:10.432Z,95280.79
2019-05-03T13:33:57.941Z,95273.67
2019-05-03T13:36:45.740Z,95278.27
2019-05-03T13:39:35.703Z,95281.44
2019-05-03T13:42:22.584Z,95281.66
2019-05-03T13:45:10.360Z,95275.91
2019-05-03T13:47:57.815Z,95272.26
2019-05-03T13:50:45.491Z,95277.46
2019-05-03T13:53:34.769Z,95273.16
2019-05-03T13:56:22.189Z,95266.33
2019-05-03T13:59:18.773Z,95267.55
2019-05-03T14:02:11.527Z,95264.52
2019-05-03T14:04:52.451Z,95261.77
2019-05-03T14:07:38.152Z,95261.72
2019-05-03T14:10:25.905Z,95260.91
2019-05-03T14:13:13.436Z,95258.95
2019-05-03T14:16:00.543Z,95255.03
2019-05-03T14:18:50.101Z,95257.16
2019-05-03T14:21:45.155Z,95260.07
2019-05-03T14:24:32.747Z,95262.23
2019-05-03T14:27:20.525Z,95261.86
2019-05-03T14:30:08.679Z,95263.14
2019-05-03T14:32:56.459Z,95266.92
2019-05-03T14:35:45.227Z,95259.89
2019-05-03T14:38:32.980Z,95259.84
2019-05-03T14:41:20.600Z,95260.58
2019-05-03T14:44:08.423Z,95255.52
2019-05-03T14:46:59.151Z,95257.05
2019-05-03T14:49:45.535Z,95255.17
2019-05-03T14:52:34.821Z,95256.23
2019-05-03T14:55:38.103Z,95258.92
2019-05-03T14:59:02.994Z,95261.47
2019-05-03T15:01:58.295Z,95253.34
2019-05-03T15:04:45.794Z,95252.70
2019-05-03T15:07:35.161Z,95234.59
2019-05-03T15:10:23.121Z,95248.78
2019-05-03T15:13:10.248Z,95242.78
2019-05-03T15:15:57.736Z,95249.11
2019-05-03T15:18:45.764Z,95247.88
2019-05-03T15:21:34.659Z,95245.34
2019-05-03T15:24:22.059Z,95232.72
2019-05-03T15:27:09.830Z,95236.38
2019-05-03T15:29:56.965Z,95232.65
2019-05-03T15:32:56.773Z,95239.59
2019-05-03T15:35:35.086Z,95233.94
2019-05-03T15:38:22.745Z,95232.89
2019-05-03T15:41:10.631Z,95226.59
2019-05-03T15:44:25.234Z,95224.63
2019-05-03T15:47:18.210Z,95216.63
2019-05-03T15:50:06.152Z,95214.89
2019-05-03T15:52:55.028Z,95220.11
2019-05-03T15:55:43.097Z,95223.88
2019-05-03T15:58:30.498Z,95212.00
2019-05-03T16:01:18.294Z,95209.66
2019-05-03T16:04:06.092Z,95208.02
2019-05-03T16:06:55.388Z,95207.61
2019-05-03T16:09:44.526Z,95204.08
2019-05-03T16:12:34.327Z,95207.55
2019-05-03T16:15:21.455Z,95207.17
2019-05-03T16:18:09.248Z,95212.97
2019-05-03T16:20:56.923Z,95214.68
2019-05-03T16:23:46.387Z,95220.40
2019-05-03T16:26:33.330Z,95216.74
2019-05-03T16:29:20.992Z,95217.81
2019-05-03T16:32:09.721Z,95220.94
2019-05-03T16:34:57.219Z,95217.27
2019-05-03T16:37:45.248Z,95221.05
2019-05-03T16:40:34.545Z,95218.55
2019-05-03T16:43:22.632Z,95216.42
2019-05-03T16:46:10.115Z,95217.38
2019-05-03T16:48:58.309Z,95218.53
2019-05-03T16:51:45.737Z,95212.18
2019-05-03T16:54:34.830Z,95207.44
2019-05-03T16:57:24.691Z,95216.16
2019-05-03T17:00:12.434Z,95207.75
2019-05-03T17:03:00.629Z,95210.36
2019-05-03T17:06:14.801Z,95209.63
2019-05-03T17:09:10.214Z,95209.63
2019-05-03T17:12:25.910Z,95217.08
2019-05-03T17:15:14.457Z,95214.63
2019-05-03T17:18:02.500Z,95218.55
2019-05-03T17:20:50.347Z,95224.83
2019-05-03T17:23:37.928Z,95220.23
2019-05-03T17:26:25.632Z,95219.69
2019-05-03T17:29:13.437Z,95216.30
2019-05-03T17:32:00.648Z,95221.87
2019-05-03T17:34:48.532Z,95225.45
2019-05-03T17:37:36.208Z,95220.41
2019-05-03T17:40:39.554Z,95220.16
2019-05-03T17:43:30.039Z,95215.28
2019-05-03T17:46:17.779Z,95219.72
2019-05-03T17:49:05.360Z,95210.27
2019-05-03T17:52:11.876Z,95213.38
2019-05-03T17:55:12.154Z,95213.07
2019-05-03T17:58:04.528Z,95209.69
2019-05-03T18:01:00.076Z,95212.47
2019-05-03T18:03:49.030Z,95217.75
2019-05-03T18:06:41.838Z,95211.41
2019-05-03T18:09:34.582Z,95213.81
2019-05-03T18:12:24.321Z,95212.77
2019-05-03T18:15:11.310Z,95208.58
2019-05-03T18:17:58.849Z,95214.73
2019-05-03T18:20:47.378Z,95219.11
2019-05-03T18:23:35.208Z,95221.67
2019-05-03T18:26:22.498Z,95225.56
2019-05-03T18:29:09.964Z,95226.59
2019-05-03T18:31:57.622Z,95224.00
2019-05-03T18:34:45.526Z,95221.72
2019-05-03T18:37:35.538Z,95223.98
2019-05-03T18:40:24.764Z,95222.41
2019-05-03T18:43:18.198Z,95222.23
2019-05-03T18:46:14.312Z,95225.36
2019-05-03T18:49:02.236Z,95224.05
2019-05-03T18:51:49.752Z,95229.30
2019-05-03T18:54:37.392Z,95235.67
2019-05-03T18:57:25.563Z,95231.84
2019-05-03T19:00:15.330Z,95242.72
2019-05-03T19:03:03.045Z,95240.72
2019-05-03T19:05:54.685Z,95243.44
2019-05-03T19:09:19.664Z,95246.39
2019-05-03T19:12:23.062Z,95250.73
2019-05-03T19:15:11.460Z,95248.89
2019-05-03T19:18:12.531Z,95252.17
2019-05-03T19:21:00.544Z,95248.23
2019-05-03T19:23:48.266Z,95248.25
2019-05-03T19:26:36.184Z,95248.03
2019-05-03T19:29:25.037Z,95244.41
2019-05-03T19:32:14.861Z,95247.02
2019-05-03T19:35:02.527Z,95254.13
2019-05-03T19:37:50.328Z,95257.27
2019-05-03T19:40:37.815Z,95266.08
2019-05-03T19:43:27.153Z,95257.27
2019-05-03T19:46:16.479Z,95257.51
2019-05-03T19:49:05.020Z,95260.66
2019-05-03T19:51:54.529Z,95268.33
2019-05-03T19:54:42.214Z,95263.36
2019-05-03T19:57:35.122Z,95266.41
2019-05-03T20:00:25.596Z,95263.34
2019-05-03T20:03:17.312Z,95261.98
2019-05-03T20:06:15.477Z,95262.88
2019-05-03T20:09:09.085Z,95259.94
2019-05-03T20:11:56.905Z,95267.42
2019-05-03T20:14:45.086Z,95264.94
2019-05-03T20:17:34.581Z,95265.38
2019-05-03T20:20:22.255Z,95267.65
2019-05-03T20:23:09.692Z,95264.71
2019-05-03T20:25:57.240Z,95262.11
2019-05-03T20:28:45.234Z,95267.64
2019-05-03T20:31:32.637Z,95260.64
2019-05-03T20:34:20.297Z,95258.52
2019-05-03T20:37:07.776Z,95262.67
2019-05-03T20:39:55.546Z,95266.18
2019-05-03T20:42:54.266Z,95273.52
2019-05-03T20:46:10.682Z,95275.54
2019-05-03T20:49:01.246Z,95272.28
2019-05-03T20:51:51.281Z,95269.80
2019-05-03T20:54:38.169Z,95264.06
2019-05-03T20:57:25.993Z,95267.56
2019-05-03T21:00:15.935Z,95273.08
2019-05-03T21:03:04.917Z,95270.03
2019-05-03T21:05:52.794Z,95267.22
2019-05-03T21:08:50.658Z,95264.62
2019-05-03T21:11:29.738Z,95261.34
2019-05-03T21:14:17.536Z,95263.16
2019-05-03T21:17:14.959Z,95268.47
2019-05-03T21:20:27.488Z,95263.49
2019-05-03T21:23:16.138Z,95259.30
2019-05-03T21:26:16.286Z,95259.99
2019-05-03T21:29:01.959Z,95257.03
2019-05-03T21:31:49.600Z,95256.82
2019-05-03T21:34:36.901Z,95272.16
2019-05-03T21:37:24.609Z,95272.62
2019-05-03T21:40:12.163Z,95274.77
2019-05-03T21:42:59.556Z,95271.62
2019-05-03T21:45:51.475Z,95272.75
2019-05-03T21:49:10.531Z,95273.98
2019-05-03T21:51:58.204Z,95270.94
2019-05-03T21:54:45.761Z,95277.02
2019-05-03T21:57:34.471Z,95276.91
2019-05-03T22:00:24.304Z,95279.50
2019-05-03T22:03:11.855Z,95278.95
2019-05-03T22:05:59.789Z,95275.30
2019-05-03T22:08:47.215Z,95281.98
2019-05-03T22:11:34.917Z,95282.58
2019-05-03T22:14:35.078Z,95280.16
2019-05-03T22:17:40.219Z,95285.05
2019-05-03T22:20:35.058Z,95272.30
2019-05-03T22:23:55.178Z,95282.75
2019-05-03T22:26:51.737Z,95270.31
2019-05-03T22:29:39.166Z,95265.86
2019-05-03T22:32:27.108Z,95262.00
2019-05-03T22:35:15.665Z,95253.87
2019-05-03T22:38:06.283Z,95251.19
2019-05-03T22:40:55.318Z,95249.87
2019-05-03T22:43:42.743Z,95245.80
2019-05-03T22:46:30.241Z,95250.83
2019-05-03T22:49:17.799Z,95247.11
2019-05-03T22:52:05.614Z,95243.39
2019-05-03T22:54:55.354Z,95237.81
2019-05-03T22:57:42.275Z,95232.93
2019-05-03T23:00:29.785Z,95241.62
2019-05-03T23:03:17.499Z,95235.71
2019-05-03T23:06:05.194Z,95227.66
2019-05-03T23:08:55.962Z,95231.16
2019-05-03T23:11:44.577Z,95225.30
2019-05-03T23:14:31.488Z,95220.70
2019-05-03T23:17:18.780Z,95215.52
2019-05-03T23:20:12.731Z,95217.23
2019-05-03T23:23:00.045Z,95214.48
2019-05-03T23:25:51.137Z,95215.41
2019-05-03T23:28:38.538Z,95209.08
2019-05-03T23:31:26.155Z,95208.98
2019-05-03T23:34:13.823Z,95205.38
2019-05-03T23:37:01.326Z,95204.00
2019-05-03T23:39:48.638Z,95205.70
2019-05-03T23:42:36.217Z,95200.88
2019-05-03T23:45:25.509Z,95196.19
2019-05-03T23:48:14.915Z,95194.11
2019-05-03T23:51:01.996Z,95195.71
2019-05-03T23:53:49.559Z,95193.95
2019-05-03T23:56:36.815Z,95183.55
2019-05-03T23:59:24.583Z,95184.90
